Time;durP1;ratioP1;P1;durP2;ratioP2;P2;SDS_P1;SDS_P2;PMS_P1;PMS_P2;Temp;Humidity;BMP_temperature;BMP_pressure;BME280_temperature;BME280_humidity;BME280_pressure;Samples;Min_cycle;Max_cycle;Signal;HPM_P1;HPM_P2
2021/08/24 02:46:36;;;;;;;;;;;14.30;99.90;;;;;;5;36052910;41319009;-87
2021/08/24 02:49:51;;;;;;;;;;;14.40;99.90;;;;;;5;36015143;41268601;-88
2021/08/24 02:53:09;;;;;;;;;;;14.30;99.90;;;;;;5;36015875;41267690;-87
2021/08/24 02:56:29;;;;;;;;;;;14.40;99.90;;;;;;5;36015904;41267231;-87
2021/08/24 02:59:48;;;;;;;;;;;14.40;99.90;;;;;;5;36014031;41265533;-87
2021/08/24 03:03:02;;;;;;;;;;;14.40;99.90;;;;;;5;36015533;41266451;-87
2021/08/24 03:06:20;;;;;;;;;;;14.40;99.90;;;;;;5;36014326;41266608;-87
2021/08/24 03:09:40;;;;;;;;;;;14.50;99.90;;;;;;5;36013239;41266218;-88
2021/08/24 03:13:04;;;;;;;;;;;14.60;99.90;;;;;;5;36014410;42016827;-88
2021/08/24 03:16:21;;;;;;;;;;;14.70;99.90;;;;;;5;36013985;41266631;-87
2021/08/24 03:19:39;;;;;;;;;;;14.80;99.90;;;;;;5;36013483;41267714;-88
2021/08/24 03:22:59;;;;;;;;;;;14.90;99.90;;;;;;5;36013691;41266878;-88
2021/08/24 03:26:20;;;;;;;;;;;14.90;99.90;;;;;;5;36014088;41265939;-87
2021/08/24 03:29:35;;;;;;;;;;;15.00;99.90;;;;;;5;36013984;41266022;-87
2021/08/24 03:32:52;;;;;;;;;;;15.10;99.90;;;;;;5;36013189;41267579;-93
2021/08/24 03:36:13;;;;;;;;;;;15.10;99.90;;;;;;5;36013350;41266610;-92
2021/08/24 03:39:32;;;;;;;;;;;15.20;99.90;;;;;;5;36012883;41266140;-94
2021/08/24 03:42:46;;;;;;;;;;;15.10;99.90;;;;;;5;36013140;41265705;-89
2021/08/24 03:46:05;;;;;;;;;;;15.20;99.90;;;;;;5;36013375;42017702;-87
2021/08/24 03:49:25;;;;;;;;;;;15.20;99.90;;;;;;5;36014076;41266263;-87
2021/08/24 03:52:44;;;;;;;;;;;15.20;99.90;;;;;;5;36014548;41266256;-88
2021/08/24 03:55:58;;;;;;;;;;;15.20;99.90;;;;;;5;36014686;41265417;-88
2021/08/24 03:59:15;;;;;;;;;;;15.20;99.90;;;;;;5;36013302;41265622;-87
2021/08/24 04:02:35;;;;;;;;;;;15.30;99.90;;;;;;5;36014063;41266764;-91
2021/08/24 04:05:59;;;;;;;;;;;15.30;99.90;;;;;;5;36013190;41267004;-87
2021/08/24 04:09:13;;;;;;;;;;;15.30;99.90;;;;;;5;36014894;41266619;-86
2021/08/24 04:12:30;;;;;;;;;;;15.40;99.90;;;;;;5;36014300;41265230;-87
2021/08/24 04:15:49;;;;;;;;;;;15.30;99.90;;;;;;5;36015829;41266491;-89
2021/08/24 04:19:11;;;;;;;;;;;15.40;99.90;;;;;;5;36014091;42015260;-88
2021/08/24 04:22:25;;;;;;;;;;;15.30;99.90;;;;;;5;36013702;41266422;-90
2021/08/24 04:25:42;;;;;;;;;;;15.30;99.90;;;;;;5;36012780;41266582;-86
2021/08/24 04:29:02;;;;;;;;;;;15.40;99.90;;;;;;5;36013966;41265448;-89
2021/08/24 04:32:28;;;;;;;;;;;15.10;99.90;;;;;;5;36013573;41265864;-88
2021/08/24 04:35:42;;;;;;;;;;;15.40;99.90;;;;;;5;36014943;41266089;-87
2021/08/24 04:38:59;;;;;;;;;;;15.40;99.90;;;;;;5;36014409;41265805;-88
2021/08/24 04:42:18;;;;;;;;;;;15.30;99.90;;;;;;5;36014237;41266521;-88
2021/08/24 04:45:38;;;;;;;;;;;15.40;99.90;;;;;;5;36014908;41267042;-86
2021/08/24 04:48:52;;;;;;;;;;;15.30;99.90;;;;;;5;36015050;41268080;-85
2021/08/24 04:52:11;;;;;;;;;;;15.40;99.90;;;;;;5;36013097;42017519;-88
2021/08/24 04:55:31;;;;;;;;;;;15.40;99.90;;;;;;5;36014651;41266253;-89
2021/08/24 04:58:50;;;;;;;;;;;15.40;99.90;;;;;;5;36013956;41267268;-89
2021/08/24 05:02:04;;;;;;;;;;;15.40;99.90;;;;;;5;36015007;41266988;-89
2021/08/24 05:05:22;;;;;;;;;;;15.40;99.90;;;;;;5;36014351;41267643;-90
2021/08/24 05:08:41;;;;;;;;;;;15.40;99.90;;;;;;5;36014294;41265843;-91
2021/08/24 05:12:00;;;;;;;;;;;15.40;99.90;;;;;;5;36013409;41266095;-90
2021/08/24 05:15:15;;;;;;;;;;;15.40;99.90;;;;;;5;36014095;41265880;-89
2021/08/24 05:18:32;;;;;;;;;;;15.60;99.90;;;;;;5;36014007;41268147;-89
2021/08/24 05:21:52;;;;;;;;;;;15.50;99.90;;;;;;5;36013568;41268261;-87
2021/08/24 05:25:14;;;;;;;;;;;15.50;99.90;;;;;;5;36014199;42017402;-87
2021/08/24 05:28:28;;;;;;;;;;;15.60;99.90;;;;;;5;36014671;41266047;-84
2021/08/24 05:31:45;;;;;;;;;;;15.60;99.90;;;;;;5;36014221;41267949;-89
2021/08/24 05:35:05;;;;;;;;;;;15.70;99.90;;;;;;5;36013786;41266930;-89
2021/08/24 05:38:24;;;;;;;;;;;15.90;99.90;;;;;;5;36014970;41268099;-86
2021/08/24 05:41:39;;;;;;;;;;;16.00;99.90;;;;;;5;36013880;41269244;-91
2021/08/24 05:44:57;;;;;;;;;;;16.00;99.90;;;;;;5;36014544;41266689;-90
2021/08/24 05:48:17;;;;;;;;;;;16.00;99.90;;;;;;5;36014657;41266699;-90
2021/08/24 05:51:37;;;;;;;;;;;16.10;99.90;;;;;;5;36014471;41266030;-90
2021/08/24 05:54:51;;;;;;;;;;;16.20;99.90;;;;;;5;36013375;41266485;-90
2021/08/24 05:58:10;;;;;;;;;;;16.30;99.90;;;;;;5;36013996;42016566;-90
2021/08/24 06:01:31;;;;;;;;;;;16.40;99.90;;;;;;5;36014273;41267080;-90
2021/08/24 06:04:52;;;;;;;;;;;16.40;99.90;;;;;;5;36013878;41265955;-90
2021/08/24 06:08:07;;;;;;;;;;;16.50;99.90;;;;;;5;36014165;41265644;-90
2021/08/24 06:11:28;;;;;;;;;;;16.50;99.90;;;;;;5;36013841;41266192;-90
2021/08/24 06:14:48;;;;;;;;;;;16.60;99.90;;;;;;5;36014634;41266122;-90
2021/08/24 06:18:07;;;;;;;;;;;16.60;99.90;;;;;;5;36014154;41265668;-90
2021/08/24 06:21:21;;;;;;;;;;;16.60;99.90;;;;;;5;36014260;41267054;-89
2021/08/24 06:24:38;;;;;;;;;;;16.50;99.90;;;;;;5;36014607;41266559;-89
2021/08/24 06:27:58;;;;;;;;;;;16.50;99.90;;;;;;5;36014287;41266641;-90
2021/08/24 06:31:20;;;;;;;;;;;16.40;99.90;;;;;;5;36013671;42016893;-90
2021/08/24 06:34:35;;;;;;;;;;;16.50;99.90;;;;;;5;36014969;41266035;-89
2021/08/24 06:37:52;;;;;;;;;;;16.50;99.90;;;;;;5;36014138;41266266;-90
2021/08/24 06:41:12;;;;;;;;;;;16.60;99.90;;;;;;5;36014242;41265588;-89
2021/08/24 06:44:31;;;;;;;;;;;16.60;99.90;;;;;;5;36013592;41266504;-90
2021/08/24 06:47:46;;;;;;;;;;;16.70;99.90;;;;;;5;36014102;41267172;-90
2021/08/24 06:51:03;;;;;;;;;;;16.70;99.90;;;;;;5;36014261;41265650;-89
2021/08/24 06:54:22;;;;;;;;;;;16.80;99.90;;;;;;5;36015665;41266299;-90
2021/08/24 06:57:42;;;;;;;;;;;16.90;99.90;;;;;;5;36014174;41265859;-89
2021/08/24 07:00:56;;;;;;;;;;;17.10;99.90;;;;;;5;36013546;41266403;-89
2021/08/24 07:04:15;;;;;;;;;;;17.10;99.90;;;;;;5;36013452;42016750;-90
2021/08/24 07:07:34;;;;;;;;;;;17.20;99.90;;;;;;5;36014905;41267665;-90
2021/08/24 07:10:54;;;;;;;;;;;17.30;99.90;;;;;;5;36014639;41266332;-90
2021/08/24 07:14:10;;;;;;;;;;;17.40;99.20;;;;;;5;36013820;41265398;-88
2021/08/24 07:17:27;;;;;;;;;;;17.50;99.70;;;;;;5;36014064;41265998;-89
2021/08/24 07:20:51;;;;;;;;;;;17.50;99.00;;;;;;5;36013623;41265600;-90
2021/08/24 07:24:10;;;;;;;;;;;17.50;98.60;;;;;;5;36013975;41265452;-89
2021/08/24 07:27:24;;;;;;;;;;;17.40;98.70;;;;;;5;36014291;41265800;-90
2021/08/24 07:30:43;;;;;;;;;;;17.50;99.10;;;;;;5;36013051;41266677;-89
2021/08/24 07:34:02;;;;;;;;;;;17.60;99.10;;;;;;5;36015124;41266252;-89
2021/08/24 07:37:23;;;;;;;;;;;17.60;98.50;;;;;;5;36013994;42016698;-89
2021/08/24 07:40:37;;;;;;;;;;;17.60;98.30;;;;;;5;36013808;41267511;-89
2021/08/24 07:43:54;;;;;;;;;;;17.60;97.80;;;;;;5;36014061;41265857;-89
2021/08/24 07:47:14;;;;;;;;;;;17.60;97.60;;;;;;5;36014417;41265746;-90
2021/08/24 07:50:33;;;;;;;;;;;17.70;97.60;;;;;;5;36013955;41267337;-89
2021/08/24 07:53:48;;;;;;;;;;;17.70;97.20;;;;;;5;36013295;41266521;-89
2021/08/24 07:57:05;;;;;;;;;;;17.70;97.00;;;;;;5;36013579;41267227;-89
2021/08/24 08:00:25;;;;;;;;;;;17.70;96.70;;;;;;5;36013226;41267209;-89
2021/08/24 08:03:44;;;;;;;;;;;17.70;96.30;;;;;;5;36014124;41265578;-89
2021/08/24 08:06:58;;;;;;;;;;;17.80;96.00;;;;;;5;36014813;41266567;-90
2021/08/24 08:10:17;;;;;;;;;;;17.80;95.90;;;;;;5;36015452;42019323;-89
2021/08/24 08:13:37;;;;;;;;;;;17.70;95.90;;;;;;5;36013946;41266834;-90
2021/08/24 08:16:56;;;;;;;;;;;17.80;95.70;;;;;;5;36013285;41266166;-90
2021/08/24 08:20:11;;;;;;;;;;;18.00;95.10;;;;;;5;36014490;41266871;-90
2021/08/24 08:23:28;;;;;;;;;;;18.10;94.80;;;;;;5;36014051;41266984;-90
2021/08/24 08:26:47;;;;;;;;;;;18.20;94.90;;;;;;5;36014191;41266310;-90
2021/08/24 08:30:08;;;;;;;;;;;18.30;94.60;;;;;;5;36014448;41268216;-90
2021/08/24 08:33:22;;;;;;;;;;;18.30;93.90;;;;;;5;36014383;41265723;-90
2021/08/24 08:36:39;;;;;;;;;;;18.40;93.70;;;;;;5;36014805;41265956;-90
2021/08/24 08:39:59;;;;;;;;;;;18.50;93.90;;;;;;5;36013253;41266591;-90
2021/08/24 08:43:38;;;;;;;;;;;18.70;94.00;;;;;;5;36014329;42016219;-90
2021/08/24 08:47:01;;;;;;;;;;;18.90;93.10;;;;;;5;36013955;41265906;-90
2021/08/24 08:50:25;;;;;;;;;;;19.00;92.50;;;;;;5;36014231;41267149;-90
2021/08/24 08:53:52;;;;;;;;;;;19.10;91.60;;;;;;5;36014891;41266229;-90
2021/08/24 08:57:14;;;;;;;;;;;19.20;91.50;;;;;;5;36014553;41266303;-90
2021/08/24 09:00:39;;;;;;;;;;;19.20;91.10;;;;;;5;36013441;41266709;-90
2021/08/24 09:04:09;;;;;;;;;;;19.20;90.50;;;;;;5;36013458;41265738;-89
2021/08/24 09:07:55;;;;;;;;;;;19.20;90.10;;;;;;5;36013473;41266528;-90
2021/08/24 09:11:14;;;;;;;;;;;19.20;90.40;;;;;;5;36014870;41266805;-90
2021/08/24 09:14:38;;;;;;;;;;;19.20;90.00;;;;;;5;36013353;41267427;-89
2021/08/24 09:17:57;;;;;;;;;;;19.10;90.40;;;;;;5;36015075;42016051;-90
2021/08/24 09:21:21;;;;;;;;;;;19.20;89.90;;;;;;5;36014366;41266588;-90
2021/08/24 09:24:41;;;;;;;;;;;19.30;90.20;;;;;;5;36013792;41265971;-90
2021/08/24 09:28:03;;;;;;;;;;;19.60;89.50;;;;;;5;36014303;41265716;-90
2021/08/24 09:31:22;;;;;;;;;;;19.70;89.10;;;;;;5;36013231;41267709;-89
2021/08/24 09:34:43;;;;;;;;;;;19.80;86.80;;;;;;5;36014998;41266171;-89
2021/08/24 09:38:13;;;;;;;;;;;19.90;86.50;;;;;;5;36012934;41266404;-90
2021/08/24 09:41:29;;;;;;;;;;;19.90;86.90;;;;;;5;36014772;41265388;-90
2021/08/24 09:44:46;;;;;;;;;;;20.10;86.00;;;;;;5;36014195;41265357;-90
2021/08/24 09:48:08;;;;;;;;;;;20.40;84.90;;;;;;5;36014775;41265784;-90
2021/08/24 09:51:34;;;;;;;;;;;20.60;83.90;;;;;;5;36013890;42016023;-89
2021/08/24 09:54:48;;;;;;;;;;;20.80;82.10;;;;;;5;36014657;41265323;-89
2021/08/24 09:58:06;;;;;;;;;;;20.90;81.40;;;;;;5;36013602;41266178;-90
2021/08/24 10:01:42;;;;;;;;;;;21.10;81.30;;;;;;5;36014517;41266748;-90
2021/08/24 10:05:02;;;;;;;;;;;21.10;80.10;;;;;;5;36014494;41265785;-89
2021/08/24 10:08:27;;;;;;;;;;;21.30;79.70;;;;;;5;36013995;41266186;-90
2021/08/24 10:11:44;;;;;;;;;;;21.50;78.90;;;;;;5;36013053;41267639;-90
2021/08/24 10:15:23;;;;;;;;;;;21.90;77.70;;;;;;5;36013880;41265880;-91
2021/08/24 10:18:42;;;;;;;;;;;22.20;76.80;;;;;;5;36013806;41266453;-90
2021/08/24 10:22:02;;;;;;;;;;;22.10;75.70;;;;;;5;36014962;41266080;-90
2021/08/24 10:25:31;;;;;;;;;;;22.30;76.60;;;;;;5;36014711;42017048;-90
2021/08/24 10:28:52;;;;;;;;;;;22.20;75.50;;;;;;5;36015126;41266120;-90
2021/08/24 10:32:21;;;;;;;;;;;22.00;75.80;;;;;;5;36015181;41267315;-90
2021/08/24 10:35:37;;;;;;;;;;;21.90;76.70;;;;;;5;36015221;41265406;-89
2021/08/24 10:38:59;;;;;;;;;;;21.50;78.10;;;;;;5;36013807;41266700;-90
2021/08/24 10:42:20;;;;;;;;;;;21.30;77.00;;;;;;5;36015571;41265638;-89
2021/08/24 10:45:41;;;;;;;;;;;21.20;77.60;;;;;;5;36015037;41266172;-90
2021/08/24 10:48:55;;;;;;;;;;;21.10;78.40;;;;;;5;36014260;41268272;-91
2021/08/24 10:52:20;;;;;;;;;;;21.10;79.00;;;;;;5;36013383;41266527;-90
2021/08/24 10:55:46;;;;;;;;;;;21.20;78.80;;;;;;5;36014508;41266452;-89
2021/08/24 10:59:19;;;;;;;;;;;21.50;77.10;;;;;;5;36015545;42016360;-89
2021/08/24 11:02:51;;;;;;;;;;;22.30;76.20;;;;;;5;36014011;41265779;-89
2021/08/24 11:06:14;;;;;;;;;;;23.40;73.80;;;;;;5;36013357;41266492;-90
2021/08/24 11:09:44;;;;;;;;;;;26.20;68.90;;;;;;5;36013982;41266280;-90
2021/08/24 11:13:14;;;;;;;;;;;30.20;57.70;;;;;;5;36014060;41266114;-91
2021/08/24 11:16:54;;;;;;;;;;;33.20;49.80;;;;;;5;36022165;41265540;-91
2021/08/24 11:20:14;;;;;;;;;;;36.00;45.70;;;;;;5;36013904;41266586;-90
2021/08/24 11:23:36;;;;;;;;;;;35.60;42.50;;;;;;5;36013181;41267431;-90
2021/08/24 11:27:12;;;;;;;;;;;34.10;44.10;;;;;;5;36014579;41266285;-89
2021/08/24 11:30:38;;;;;;;;;;;32.60;45.00;;;;;;5;36013956;41266904;-89
2021/08/24 11:34:01;;;;;;;;;;;30.50;48.20;;;;;;5;36013528;42017387;-90
2021/08/24 11:37:24;;;;;;;;;;;29.00;51.30;;;;;;5;36014491;41265608;-90
2021/08/24 11:40:58;;;;;;;;;;;27.90;53.00;;;;;;5;36014699;41265693;-90
2021/08/24 11:44:25;;;;;;;;;;;27.00;54.80;;;;;;5;36014549;41266029;-90
2021/08/24 11:47:52;;;;;;;;;;;26.50;55.00;;;;;;5;36013717;41266469;-92
2021/08/24 11:51:14;;;;;;;;;;;26.00;56.30;;;;;;5;36013284;41267447;-92
2021/08/24 11:54:49;;;;;;;;;;;25.80;56.80;;;;;;5;36013895;41265864;-91
2021/08/24 11:58:15;;;;;;;;;;;25.50;57.50;;;;;;5;36014000;41266462;-92
2021/08/24 12:02:14;;;;;;;;;;;25.10;58.80;;;;;;5;36014529;41265754;-91
2021/08/24 12:05:45;;;;;;;;;;;24.50;59.70;;;;;;5;36013843;41266030;-90
2021/08/24 12:09:07;;;;;;;;;;;24.30;61.60;;;;;;5;36013982;42016237;-91
2021/08/24 12:12:30;;;;;;;;;;;24.10;61.70;;;;;;5;36015137;41266636;-89
2021/08/24 12:15:47;;;;;;;;;;;24.00;62.00;;;;;;5;36013720;41267111;-90
2021/08/24 12:19:18;;;;;;;;;;;23.60;62.90;;;;;;5;36014266;41267115;-90
2021/08/24 12:22:40;;;;;;;;;;;24.10;64.00;;;;;;5;36014382;41267691;-89
2021/08/24 12:25:55;;;;;;;;;;;24.30;61.70;;;;;;5;36014960;41266121;-93
2021/08/24 12:29:31;;;;;;;;;;;24.10;62.10;;;;;;5;36013380;41266006;-90
2021/08/24 12:32:50;;;;;;;;;;;24.00;62.40;;;;;;5;36014114;41265233;-93
2021/08/24 12:36:30;;;;;;;;;;;23.90;61.50;;;;;;5;36013331;41266350;-94
2021/08/24 12:39:47;;;;;;;;;;;23.60;63.50;;;;;;5;36015089;41265567;-94
2021/08/24 12:43:17;;;;;;;;;;;23.40;64.10;;;;;;5;36013383;42015580;-94
2021/08/24 12:46:37;;;;;;;;;;;23.20;64.20;;;;;;5;36013732;41265221;-94
2021/08/24 12:49:57;;;;;;;;;;;23.20;64.90;;;;;;5;36014217;41265025;-94
2021/08/24 12:53:41;;;;;;;;;;;23.30;64.30;;;;;;5;36013541;41265855;-93
2021/08/24 12:57:04;;;;;;;;;;;23.40;62.30;;;;;;5;36013357;41266717;-94
2021/08/24 13:00:37;;;;;;;;;;;23.80;63.20;;;;;;5;36013020;41266392;-93
2021/08/24 13:03:57;;;;;;;;;;;24.60;61.30;;;;;;5;36013008;41266293;-93
2021/08/24 13:07:17;;;;;;;;;;;25.90;59.20;;;;;;5;36013307;41265685;-94
2021/08/24 13:10:36;;;;;;;;;;;27.80;55.50;;;;;;5;36012813;41265593;-94
2021/08/24 13:14:04;;;;;;;;;;;28.70;51.20;;;;;;5;36014404;41265626;-94
2021/08/24 13:17:30;;;;;;;;;;;28.70;52.20;;;;;;5;36013810;42014957;-93
2021/08/24 13:20:44;;;;;;;;;;;27.70;52.30;;;;;;5;36013011;41265869;-93
2021/08/24 13:24:05;;;;;;;;;;;26.80;53.20;;;;;;5;36013084;41265481;-94
2021/08/24 13:27:43;;;;;;;;;;;26.00;55.20;;;;;;5;36012465;41265407;-93
2021/08/24 13:31:06;;;;;;;;;;;25.40;55.80;;;;;;5;36013107;41265123;-94
2021/08/24 13:34:24;;;;;;;;;;;25.00;57.40;;;;;;5;36013952;41265680;-92
2021/08/24 13:37:42;;;;;;;;;;;24.50;57.90;;;;;;5;36012912;41265529;-93
2021/08/24 13:41:05;;;;;;;;;;;24.30;59.00;;;;;;5;36012814;41265783;-93
2021/08/24 13:44:29;;;;;;;;;;;24.30;59.10;;;;;;5;36013200;41265166;-93
2021/08/24 13:47:48;;;;;;;;;;;24.20;60.00;;;;;;5;36013098;41265692;-93
2021/08/24 13:51:08;;;;;;;;;;;24.40;61.20;;;;;;5;36013716;42015704;-93
2021/08/24 13:54:32;;;;;;;;;;;24.70;59.00;;;;;;5;36013769;41266073;-93
2021/08/24 13:57:52;;;;;;;;;;;24.60;58.40;;;;;;5;36014273;41266040;-91
2021/08/24 14:01:13;;;;;;;;;;;24.40;58.20;;;;;;5;36013427;41265592;-93
2021/08/24 14:04:33;;;;;;;;;;;24.20;59.80;;;;;;5;36014214;41265503;-91
2021/08/24 14:07:54;;;;;;;;;;;23.90;60.20;;;;;;5;36013326;41267631;-92
2021/08/24 14:11:21;;;;;;;;;;;24.00;61.60;;;;;;5;36014152;41266534;-91
2021/08/24 14:14:35;;;;;;;;;;;23.80;60.50;;;;;;5;36014622;41265373;-90
2021/08/24 14:17:57;;;;;;;;;;;24.30;60.50;;;;;;5;36013595;41266200;-90
2021/08/24 14:21:17;;;;;;;;;;;24.00;59.90;;;;;;5;36013956;41266005;-90
2021/08/24 14:24:39;;;;;;;;;;;24.50;60.30;;;;;;5;36013801;42015322;-92
2021/08/24 14:27:53;;;;;;;;;;;25.00;57.70;;;;;;5;36014090;41265817;-91
2021/08/24 14:31:12;;;;;;;;;;;25.40;58.00;;;;;;5;36013965;41267063;-92
2021/08/24 14:34:36;;;;;;;;;;;26.10;56.70;;;;;;5;36014170;41265341;-91
2021/08/24 14:37:56;;;;;;;;;;;26.30;55.20;;;;;;5;36014439;41266943;-91
2021/08/24 14:41:13;;;;;;;;;;;25.70;55.40;;;;;;5;36013492;41265230;-90
2021/08/24 14:44:41;;;;;;;;;;;25.10;56.90;;;;;;5;36014253;41264739;-91
2021/08/24 14:48:04;;;;;;;;;;;24.60;57.90;;;;;;5;36013852;41265080;-89
2021/08/24 14:51:23;;;;;;;;;;;24.00;59.90;;;;;;5;36013076;41266584;-89
2021/08/24 14:54:38;;;;;;;;;;;23.80;61.20;;;;;;5;36014710;41265378;-90
2021/08/24 14:57:57;;;;;;;;;;;23.50;60.40;;;;;;5;36012840;42015327;-93
2021/08/24 15:01:17;;;;;;;;;;;23.30;61.00;;;;;;5;36014153;41266274;-89
2021/08/24 15:04:37;;;;;;;;;;;23.20;61.10;;;;;;5;36013328;41266842;-87
2021/08/24 15:08:06;;;;;;;;;;;22.90;61.50;;;;;;5;36013761;41266349;-91
2021/08/24 15:11:32;;;;;;;;;;;22.70;61.60;;;;;;5;36013423;41266570;-91
2021/08/24 15:15:00;;;;;;;;;;;22.50;61.90;;;;;;5;36013560;41266650;-91
2021/08/24 15:18:22;;;;;;;;;;;22.30;63.00;;;;;;5;36013910;41266434;-90
2021/08/24 15:21:43;;;;;;;;;;;22.10;64.20;;;;;;5;36014687;41266981;-90
2021/08/24 15:25:02;;;;;;;;;;;21.90;64.90;;;;;;5;36013423;41266754;-89
2021/08/24 15:28:23;;;;;;;;;;;22.00;66.00;;;;;;5;36013355;41268136;-89
2021/08/24 15:32:04;;;;;;;;;;;22.40;64.90;;;;;;5;36013551;42016436;-90
2021/08/24 15:35:20;;;;;;;;;;;22.80;62.60;;;;;;5;36014996;41266069;-90
2021/08/24 15:38:38;;;;;;;;;;;23.30;61.30;;;;;;5;36014903;41266797;-91
2021/08/24 15:41:57;;;;;;;;;;;23.60;59.70;;;;;;5;36014958;41266070;-89
2021/08/24 15:45:22;;;;;;;;;;;23.60;58.70;;;;;;5;36014468;41267245;-90
2021/08/24 15:48:36;;;;;;;;;;;23.70;59.70;;;;;;5;36015484;41266234;-90
2021/08/24 15:51:55;;;;;;;;;;;23.90;58.00;;;;;;5;36014441;41266571;-90
2021/08/24 15:55:22;;;;;;;;;;;23.70;59.00;;;;;;5;36013535;41267426;-91
2021/08/24 15:58:42;;;;;;;;;;;23.90;59.30;;;;;;5;36014622;41265679;-89
2021/08/24 16:01:56;;;;;;;;;;;23.90;58.70;;;;;;5;36014424;41266123;-90
2021/08/24 16:05:16;;;;;;;;;;;23.60;58.60;;;;;;5;36014430;42016875;-90
2021/08/24 16:08:36;;;;;;;;;;;23.40;59.50;;;;;;5;36013229;41266690;-90
2021/08/24 16:11:55;;;;;;;;;;;23.30;59.00;;;;;;5;36013009;41266761;-91
2021/08/24 16:15:10;;;;;;;;;;;23.00;60.20;;;;;;5;36013927;41265809;-90
2021/08/24 16:18:30;;;;;;;;;;;22.80;59.60;;;;;;5;36013448;41266187;-91
2021/08/24 16:21:49;;;;;;;;;;;22.60;60.00;;;;;;5;36014061;41265911;-91
2021/08/24 16:25:14;;;;;;;;;;;22.60;60.60;;;;;;5;36013632;41266521;-91
2021/08/24 16:28:29;;;;;;;;;;;22.50;60.80;;;;;;5;36014103;41265624;-92
2021/08/24 16:31:46;;;;;;;;;;;22.40;61.00;;;;;;5;36013540;41266448;-89
2021/08/24 16:35:07;;;;;;;;;;;22.40;61.70;;;;;;5;36013960;41267718;-87
2021/08/24 16:38:28;;;;;;;;;;;22.40;61.60;;;;;;5;36015729;42016310;-89
2021/08/24 16:41:42;;;;;;;;;;;22.30;61.20;;;;;;5;36014924;41265557;-92
2021/08/24 16:45:00;;;;;;;;;;;22.20;61.80;;;;;;5;36013330;41266168;-89
2021/08/24 16:48:19;;;;;;;;;;;22.00;62.00;;;;;;5;36013805;41266261;-89
2021/08/24 16:51:38;;;;;;;;;;;21.90;63.70;;;;;;5;36013820;41265758;-91
2021/08/24 16:54:52;;;;;;;;;;;21.80;63.50;;;;;;5;36014346;41266613;-90
2021/08/24 16:58:10;;;;;;;;;;;21.70;64.30;;;;;;5;36013088;41266577;-90
2021/08/24 17:01:30;;;;;;;;;;;21.60;63.90;;;;;;5;36013148;41267553;-90
2021/08/24 17:04:49;;;;;;;;;;;21.30;64.30;;;;;;5;36014323;41265438;-89
2021/08/24 17:08:04;;;;;;;;;;;21.20;65.40;;;;;;5;36017463;41268133;-91
2021/08/24 17:11:23;;;;;;;;;;;21.00;65.40;;;;;;5;36013052;42016683;-90
2021/08/24 17:14:42;;;;;;;;;;;20.90;65.70;;;;;;5;36013977;41266521;-90
2021/08/24 17:18:02;;;;;;;;;;;20.80;65.40;;;;;;5;36014610;41267269;-89
2021/08/24 17:21:16;;;;;;;;;;;20.70;65.70;;;;;;5;36013565;41266298;-90
2021/08/24 17:24:33;;;;;;;;;;;20.50;65.90;;;;;;5;36013715;41266193;-88
2021/08/24 17:27:53;;;;;;;;;;;20.40;66.00;;;;;;5;36013686;41266152;-89
2021/08/24 17:31:14;;;;;;;;;;;20.30;66.60;;;;;;5;36014302;41265519;-87
2021/08/24 17:34:31;;;;;;;;;;;20.20;66.90;;;;;;5;36014189;41266105;-91
2021/08/24 17:37:48;;;;;;;;;;;20.00;67.40;;;;;;5;36013739;41266361;-89
2021/08/24 17:41:09;;;;;;;;;;;19.80;66.30;;;;;;5;36013600;41265868;-89
2021/08/24 17:44:30;;;;;;;;;;;19.80;66.30;;;;;;5;36014561;42015427;-89
2021/08/24 17:47:49;;;;;;;;;;;19.60;67.30;;;;;;5;36013842;41265961;-89
2021/08/24 17:51:10;;;;;;;;;;;19.50;68.00;;;;;;5;36014463;41265297;-89
2021/08/24 17:54:29;;;;;;;;;;;19.40;68.00;;;;;;5;36014600;41266827;-90
2021/08/24 17:57:49;;;;;;;;;;;19.30;68.40;;;;;;5;36013075;41266539;-89
2021/08/24 18:01:04;;;;;;;;;;;19.10;69.20;;;;;;5;36014325;41265909;-89
2021/08/24 18:04:21;;;;;;;;;;;19.00;70.10;;;;;;5;36013641;41266123;-89
2021/08/24 18:07:41;;;;;;;;;;;18.80;70.90;;;;;;5;36014552;41265307;-90
2021/08/24 18:11:14;;;;;;;;;;;18.70;70.60;;;;;;5;36013220;41266176;-90
2021/08/24 18:14:30;;;;;;;;;;;18.60;70.70;;;;;;5;36014977;41265301;-88
2021/08/24 18:17:48;;;;;;;;;;;18.50;70.30;;;;;;5;36015984;42017043;-88
2021/08/24 18:21:08;;;;;;;;;;;18.40;70.70;;;;;;5;36014187;41267592;-87
2021/08/24 18:24:30;;;;;;;;;;;18.30;72.20;;;;;;5;36013042;41266946;-92
2021/08/24 18:27:44;;;;;;;;;;;18.10;72.20;;;;;;5;36014888;41266967;-86
2021/08/24 18:31:02;;;;;;;;;;;18.00;72.80;;;;;;5;36013661;41264953;-87
2021/08/24 18:34:21;;;;;;;;;;;17.90;73.30;;;;;;5;36012956;41267061;-89
2021/08/24 18:37:40;;;;;;;;;;;17.70;73.00;;;;;;5;36013091;41266011;-88
2021/08/24 18:40:55;;;;;;;;;;;17.70;74.00;;;;;;5;36012652;41265081;-88
2021/08/24 18:44:13;;;;;;;;;;;17.60;74.20;;;;;;5;36012664;41265748;-89
2021/08/24 18:47:34;;;;;;;;;;;17.40;74.70;;;;;;5;36013949;41266749;-89
2021/08/24 18:50:58;;;;;;;;;;;17.50;74.80;;;;;;5;36013400;42016651;-87
2021/08/24 18:54:12;;;;;;;;;;;17.40;75.30;;;;;;5;36014411;41266144;-88
2021/08/24 18:57:29;;;;;;;;;;;17.40;76.10;;;;;;5;36014295;41266058;-89
2021/08/24 19:01:00;;;;;;;;;;;17.30;77.20;;;;;;5;36013459;41267979;-89
2021/08/24 19:04:19;;;;;;;;;;;17.30;77.90;;;;;;5;36014704;41265243;-88
2021/08/24 19:07:33;;;;;;;;;;;17.20;78.60;;;;;;5;36013053;41266799;-88
2021/08/24 19:10:51;;;;;;;;;;;17.20;78.60;;;;;;5;36014641;41265594;-90
2021/08/24 19:14:16;;;;;;;;;;;17.20;79.20;;;;;;5;36013335;41267694;-88
2021/08/24 19:17:36;;;;;;;;;;;17.20;80.40;;;;;;5;36014289;41267313;-87
2021/08/24 19:20:50;;;;;;;;;;;17.10;81.50;;;;;;5;36013452;41269065;-86
2021/08/24 19:24:09;;;;;;;;;;;17.10;82.10;;;;;;5;36014784;42017330;-88
2021/08/24 19:27:29;;;;;;;;;;;17.10;82.90;;;;;;5;36013678;41266569;-89
2021/08/24 19:30:48;;;;;;;;;;;17.00;82.60;;;;;;5;36013885;41266285;-87
2021/08/24 19:34:02;;;;;;;;;;;16.90;82.90;;;;;;5;36013978;41266241;-89
2021/08/24 19:37:19;;;;;;;;;;;16.90;83.80;;;;;;5;36014611;41266262;-91
2021/08/24 19:40:39;;;;;;;;;;;16.90;82.80;;;;;;5;36013858;41266551;-92
2021/08/24 19:43:58;;;;;;;;;;;16.90;82.70;;;;;;5;36017476;41266684;-91
2021/08/24 19:47:12;;;;;;;;;;;16.90;81.90;;;;;;5;36015998;41266784;-91
2021/08/24 19:50:30;;;;;;;;;;;16.90;83.40;;;;;;5;36013681;41267047;-92
2021/08/24 19:53:50;;;;;;;;;;;16.80;85.50;;;;;;5;36014853;41265740;-92
2021/08/24 19:57:11;;;;;;;;;;;16.70;86.70;;;;;;5;36013285;42018573;-90
2021/08/24 20:00:25;;;;;;;;;;;16.70;87.70;;;;;;5;36014077;41265710;-88
2021/08/24 20:03:43;;;;;;;;;;;16.60;87.80;;;;;;5;36013101;41265937;-89
2021/08/24 20:07:02;;;;;;;;;;;16.50;87.80;;;;;;5;36014040;41265679;-88
2021/08/24 20:10:22;;;;;;;;;;;16.50;87.90;;;;;;5;36015082;41266480;-89
2021/08/24 20:13:36;;;;;;;;;;;16.40;88.80;;;;;;5;36014120;41265780;-89
2021/08/24 20:16:55;;;;;;;;;;;16.30;89.10;;;;;;5;36014194;41266275;-88
2021/08/24 20:20:15;;;;;;;;;;;16.30;88.90;;;;;;5;36014210;41267521;-88
2021/08/24 20:23:37;;;;;;;;;;;16.20;89.00;;;;;;5;36014881;41267360;-88
2021/08/24 20:26:52;;;;;;;;;;;16.20;88.60;;;;;;5;36014765;41266673;-89
2021/08/24 20:30:11;;;;;;;;;;;16.10;88.20;;;;;;5;36015532;42015034;-89
2021/08/24 20:33:30;;;;;;;;;;;16.10;88.60;;;;;;5;36013155;41266387;-89
2021/08/24 20:36:49;;;;;;;;;;;16.00;89.00;;;;;;5;36013280;41264152;-89
2021/08/24 20:40:04;;;;;;;;;;;16.00;87.00;;;;;;5;36014061;41265817;-89
2021/08/24 20:43:22;;;;;;;;;;;16.10;86.80;;;;;;5;36012952;41266786;-89
2021/08/24 20:46:43;;;;;;;;;;;16.00;87.10;;;;;;5;36013460;41267274;-89
2021/08/24 20:50:04;;;;;;;;;;;16.00;86.60;;;;;;5;36014735;41265948;-89
2021/08/24 20:53:19;;;;;;;;;;;16.00;85.90;;;;;;5;36014589;41266891;-88
2021/08/24 20:56:37;;;;;;;;;;;16.00;85.90;;;;;;5;36014275;41266301;-88
2021/08/24 20:59:56;;;;;;;;;;;16.00;86.60;;;;;;5;36012779;41267047;-88
2021/08/24 21:03:18;;;;;;;;;;;16.00;87.00;;;;;;5;36014357;42016262;-88
2021/08/24 21:06:33;;;;;;;;;;;15.90;86.90;;;;;;5;36013382;41266266;-89
2021/08/24 21:09:50;;;;;;;;;;;15.90;87.30;;;;;;5;36014418;41266239;-88
2021/08/24 21:13:10;;;;;;;;;;;15.90;87.50;;;;;;5;36014138;41265698;-88
2021/08/24 21:16:30;;;;;;;;;;;15.80;88.10;;;;;;5;36013878;41265895;-89
2021/08/24 21:19:44;;;;;;;;;;;15.70;88.40;;;;;;5;36013440;41266197;-88
2021/08/24 21:23:01;;;;;;;;;;;15.70;88.70;;;;;;5;36013239;41266307;-89